createdAt,value
2022-08-11T00:01:24.518Z,19.20
2022-08-11T00:04:00.664Z,19.10
2022-08-11T00:06:39.290Z,19.20
2022-08-11T00:09:16.410Z,19.10
2022-08-11T00:11:58.673Z,19.10
2022-08-11T00:14:36.948Z,19.10
2022-08-11T00:17:14.720Z,19.20
2022-08-11T00:20:14.239Z,19.20
2022-08-11T00:22:47.624Z,19.20
2022-08-11T00:25:22.124Z,19.10
2022-08-11T00:27:54.499Z,19.10
2022-08-11T00:30:39.241Z,19.10
2022-08-11T00:33:11.768Z,19.10
2022-08-11T00:35:50.868Z,19.10
2022-08-11T00:38:35.763Z,19.10
2022-08-11T00:41:31.856Z,19.00
2022-08-11T00:44:50.104Z,19.00
2022-08-11T00:48:11.250Z,18.90
2022-08-11T00:51:08.703Z,18.90
2022-08-11T00:54:43.513Z,18.80
2022-08-11T00:57:56.698Z,18.70
2022-08-11T01:01:09.333Z,18.70
2022-08-11T01:04:28.350Z,18.70
2022-08-11T01:08:00.574Z,18.60
2022-08-11T01:10:53.538Z,18.60
2022-08-11T01:14:14.106Z,18.50
2022-08-11T01:17:43.366Z,18.50
2022-08-11T01:20:49.455Z,18.40
2022-08-11T01:23:56.292Z,18.40
2022-08-11T01:27:29.698Z,18.30
2022-08-11T01:30:40.517Z,18.30
2022-08-11T01:34:05.529Z,18.20
2022-08-11T01:37:25.021Z,18.20
2022-08-11T01:40:35.757Z,18.20
2022-08-11T01:44:25.276Z,18.10
2022-08-11T01:47:58.913Z,18.10
2022-08-11T01:50:47.593Z,18.00
2022-08-11T01:54:13.066Z,18.00
2022-08-11T01:57:04.990Z,18.00
2022-08-11T02:00:09.611Z,17.90
2022-08-11T02:02:48.071Z,17.90
2022-08-11T02:05:50.530Z,17.90
2022-08-11T02:09:04.033Z,17.80
2022-08-11T02:11:49.514Z,17.80
2022-08-11T02:15:12.117Z,17.80
2022-08-11T02:18:24.298Z,17.70
2022-08-11T02:21:40.601Z,17.70
2022-08-11T02:24:50.447Z,17.70
2022-08-11T02:27:47.320Z,17.70
2022-08-11T02:30:27.933Z,17.60
2022-08-11T02:33:30.418Z,17.60
2022-08-11T02:36:24.436Z,17.50
2022-08-11T02:39:14.998Z,17.50
2022-08-11T02:42:42.471Z,17.50
2022-08-11T02:45:54.790Z,17.40
2022-08-11T02:49:19.353Z,17.40
2022-08-11T02:52:37.979Z,17.30
2022-08-11T02:55:48.826Z,17.30
2022-08-11T02:59:26.518Z,17.20
2022-08-11T03:02:43.244Z,17.10
2022-08-11T03:05:45.340Z,17.00
2022-08-11T03:08:52.524Z,17.00
2022-08-11T03:12:15.128Z,16.90
2022-08-11T03:16:01.291Z,16.80
2022-08-11T03:19:16.049Z,16.80
2022-08-11T03:22:10.624Z,16.70
2022-08-11T03:25:31.543Z,16.60
2022-08-11T03:28:22.008Z,16.60
2022-08-11T03:31:25.176Z,16.50
2022-08-11T03:34:08.409Z,16.40
2022-08-11T03:37:17.349Z,16.40
2022-08-11T03:40:42.074Z,16.30
2022-08-11T03:43:58.423Z,16.30
2022-08-11T03:47:10.373Z,16.30
2022-08-11T03:50:20.370Z,16.20
2022-08-11T03:53:39.513Z,16.10
2022-08-11T03:56:55.252Z,16.00
2022-08-11T04:00:03.053Z,15.90
2022-08-11T04:03:14.982Z,15.90
2022-08-11T04:06:32.097Z,15.90
2022-08-11T04:09:55.355Z,15.90
2022-08-11T04:12:51.578Z,15.80
2022-08-11T04:16:11.339Z,15.70
2022-08-11T04:19:38.397Z,15.70
2022-08-11T04:23:07.615Z,15.60
2022-08-11T04:26:18.862Z,15.60
2022-08-11T04:30:00.989Z,15.60
2022-08-11T04:33:09.163Z,15.60
2022-08-11T04:36:21.173Z,15.60
2022-08-11T04:39:20.073Z,15.60
2022-08-11T04:42:50.731Z,15.60
2022-08-11T04:46:06.470Z,15.60
2022-08-11T04:50:00.129Z,15.60
2022-08-11T04:53:30.569Z,15.60
2022-08-11T04:56:44.749Z,15.60
2022-08-11T05:00:16.786Z,15.70
2022-08-11T05:03:42.509Z,15.70
2022-08-11T05:07:09.625Z,15.70
2022-08-11T05:10:13.399Z,15.80
2022-08-11T05:13:28.777Z,15.80
2022-08-11T05:16:47.411Z,15.90
2022-08-11T05:19:58.807Z,16.00
2022-08-11T05:23:10.479Z,16.00
2022-08-11T05:26:46.698Z,16.20
2022-08-11T05:30:03.062Z,16.20
2022-08-11T05:33:19.586Z,16.30
2022-08-11T05:36:52.000Z,16.50
2022-08-11T05:40:08.410Z,16.60
2022-08-11T05:43:21.051Z,16.70
2022-08-11T05:46:31.350Z,16.80
2022-08-11T05:49:42.496Z,17.00
2022-08-11T05:52:57.436Z,17.10
2022-08-11T05:56:09.817Z,17.20
2022-08-11T05:58:59.879Z,17.40
2022-08-11T06:01:34.246Z,17.60
2022-08-11T06:04:16.821Z,17.90
2022-08-11T06:07:02.897Z,18.20
2022-08-11T06:09:44.317Z,18.70
2022-08-11T06:12:25.654Z,19.10
2022-08-11T06:15:13.948Z,19.60
2022-08-11T06:17:48.103Z,20.20
2022-08-11T06:20:25.489Z,20.70
2022-08-11T06:23:02.270Z,21.30
2022-08-11T06:25:37.600Z,22.00
2022-08-11T06:28:10.440Z,22.80
2022-08-11T06:30:47.217Z,23.60
2022-08-11T06:33:29.458Z,24.40
2022-08-11T06:36:14.771Z,25.10
2022-08-11T06:39:12.964Z,26.00
2022-08-11T06:42:06.478Z,26.80
2022-08-11T06:45:00.392Z,27.60
2022-08-11T06:47:53.236Z,27.80
2022-08-11T06:50:46.356Z,28.20
2022-08-11T06:54:03.511Z,28.50
2022-08-11T06:57:28.791Z,28.70
2022-08-11T07:00:32.945Z,29.00
2022-08-11T07:03:16.541Z,29.60
2022-08-11T07:05:54.545Z,30.00
2022-08-11T07:09:03.961Z,30.60
2022-08-11T07:12:19.041Z,31.30
2022-08-11T07:16:11.613Z,32.00
2022-08-11T07:18:46.471Z,32.70
2022-08-11T07:22:03.735Z,32.50
2022-08-11T07:25:21.777Z,32.80
2022-08-11T07:28:43.630Z,33.00
2022-08-11T07:31:42.047Z,32.90
2022-08-11T07:34:23.070Z,33.00
2022-08-11T07:37:04.048Z,33.50
2022-08-11T07:39:44.401Z,33.60
2022-08-11T07:42:26.770Z,33.80
2022-08-11T07:45:25.126Z,34.00
2022-08-11T07:48:36.551Z,33.90
2022-08-11T07:51:46.799Z,33.50
2022-08-11T07:54:39.500Z,33.10
2022-08-11T07:58:14.031Z,32.70
2022-08-11T08:01:34.940Z,32.60
2022-08-11T08:04:47.491Z,32.90
2022-08-11T08:07:57.858Z,33.20
2022-08-11T08:11:08.978Z,33.00
2022-08-11T08:14:20.192Z,32.90
2022-08-11T08:17:31.048Z,32.90
2022-08-11T08:20:26.692Z,32.60
2022-08-11T08:23:08.441Z,32.40
2022-08-11T08:25:43.325Z,32.60
2022-08-11T08:28:17.547Z,32.70
2022-08-11T08:30:52.496Z,32.80
2022-08-11T08:33:29.932Z,32.40
2022-08-11T08:36:15.224Z,32.10
2022-08-11T08:39:08.324Z,32.00
2022-08-11T08:41:41.095Z,31.80
2022-08-11T08:47:37.539Z,31.90
2022-08-11T08:50:16.358Z,31.70
2022-08-11T08:53:04.058Z,31.50
2022-08-11T08:55:39.460Z,31.50
2022-08-11T08:58:19.225Z,31.30
2022-08-11T09:00:54.686Z,31.20
2022-08-11T09:04:06.943Z,31.00
2022-08-11T09:06:21.117Z,30.80
2022-08-11T09:08:55.280Z,30.60
2022-08-11T09:11:46.491Z,30.30
2022-08-11T09:14:25.042Z,30.10
2022-08-11T09:17:21.165Z,29.90
2022-08-11T09:20:09.650Z,29.70
2022-08-11T09:26:37.788Z,29.40
2022-08-11T09:29:31.784Z,29.30
2022-08-11T09:32:07.197Z,29.30
2022-08-11T09:34:39.991Z,29.30
2022-08-11T09:37:55.815Z,29.40
2022-08-11T09:40:46.840Z,29.40
2022-08-11T09:43:47.801Z,29.50
2022-08-11T09:46:41.614Z,29.50
2022-08-11T09:49:14.327Z,29.60
2022-08-11T09:52:05.061Z,29.40
2022-08-11T09:54:48.274Z,29.30
2022-08-11T09:57:41.418Z,29.40
2022-08-11T10:00:38.100Z,29.40
2022-08-11T10:03:19.210Z,29.50
2022-08-11T10:06:16.921Z,29.40
2022-08-11T10:09:09.707Z,29.20
2022-08-11T10:11:43.757Z,29.10
2022-08-11T10:14:52.826Z,29.10
2022-08-11T10:18:06.329Z,29.10
2022-08-11T10:21:11.733Z,29.10
2022-08-11T10:24:25.489Z,29.10
2022-08-11T10:27:17.977Z,29.20
2022-08-11T10:30:09.886Z,29.30
2022-08-11T10:33:36.916Z,29.40
2022-08-11T10:36:32.947Z,29.40
2022-08-11T10:39:10.698Z,29.40
2022-08-11T10:42:09.586Z,29.30
2022-08-11T10:45:29.223Z,29.20
2022-08-11T10:48:26.776Z,29.30
2022-08-11T10:51:13.551Z,29.30
2022-08-11T10:54:12.361Z,29.40
2022-08-11T10:57:23.733Z,29.40
2022-08-11T11:00:16.498Z,29.40
2022-08-11T11:03:22.027Z,29.50
2022-08-11T11:06:12.548Z,29.50
2022-08-11T11:09:00.084Z,29.70
2022-08-11T11:12:01.318Z,29.90
2022-08-11T11:15:17.731Z,30.00
2022-08-11T11:18:19.823Z,30.00
2022-08-11T11:21:06.698Z,30.10
2022-08-11T11:24:02.901Z,30.20
2022-08-11T11:27:12.243Z,30.40
2022-08-11T11:30:12.437Z,30.50
2022-08-11T11:33:02.330Z,30.50
2022-08-11T11:36:11.310Z,30.60
2022-08-11T11:38:57.610Z,30.60
2022-08-11T11:41:30.853Z,30.80
2022-08-11T11:44:03.495Z,31.00
2022-08-11T11:46:38.604Z,31.20
2022-08-11T11:52:00.739Z,31.30
2022-08-11T11:54:36.573Z,31.40
2022-08-11T11:57:33.336Z,31.50
2022-08-11T12:00:43.732Z,31.60
2022-08-11T12:03:37.933Z,31.80
2022-08-11T12:06:14.209Z,31.90
2022-08-11T12:08:50.832Z,32.10
2022-08-11T12:11:46.421Z,32.10
2022-08-11T12:14:38.250Z,32.20
2022-08-11T12:17:10.503Z,32.30
2022-08-11T12:19:48.322Z,32.40
2022-08-11T12:22:39.419Z,32.50
2022-08-11T12:26:04.457Z,32.60
2022-08-11T12:29:02.147Z,32.80
2022-08-11T12:31:38.133Z,32.90
2022-08-11T12:34:17.768Z,33.00
2022-08-11T12:36:57.616Z,33.10
2022-08-11T12:40:16.784Z,33.10
2022-08-11T12:43:42.868Z,32.90
2022-08-11T12:46:42.813Z,32.90
2022-08-11T12:49:44.727Z,32.90
2022-08-11T12:52:49.109Z,32.90
2022-08-11T12:56:07.409Z,32.90
2022-08-11T12:59:16.081Z,33.00
2022-08-11T13:02:31.130Z,33.20
2022-08-11T13:05:27.617Z,33.10
2022-08-11T13:08:02.759Z,33.00
2022-08-11T13:10:55.629Z,33.00
2022-08-11T13:13:53.539Z,33.20
2022-08-11T13:16:32.265Z,33.30
2022-08-11T13:19:30.522Z,33.30
2022-08-11T13:22:05.344Z,33.40
2022-08-11T13:24:40.512Z,33.50
2022-08-11T13:27:12.829Z,33.60
2022-08-11T13:29:49.071Z,33.60
2022-08-11T13:32:26.318Z,33.60
2022-08-11T13:34:59.294Z,33.70
2022-08-11T13:38:27.109Z,33.70
2022-08-11T13:40:45.881Z,33.60
2022-08-11T13:43:21.641Z,33.60
2022-08-11T13:46:15.246Z,33.70
2022-08-11T13:49:00.508Z,33.70
2022-08-11T13:51:35.178Z,33.90
2022-08-11T13:54:10.230Z,33.90
2022-08-11T13:56:56.434Z,33.90
2022-08-11T13:59:32.801Z,33.70
2022-08-11T14:02:22.204Z,33.50
2022-08-11T14:05:11.880Z,33.30
2022-08-11T14:07:59.253Z,33.30
2022-08-11T14:10:37.480Z,33.30
2022-08-11T14:13:41.200Z,33.30
2022-08-11T14:16:30.907Z,33.40
2022-08-11T14:19:11.249Z,33.60
2022-08-11T14:22:07.879Z,33.80
2022-08-11T14:24:49.437Z,33.90
2022-08-11T14:27:39.078Z,33.90
2022-08-11T14:30:42.715Z,34.00
2022-08-11T14:33:58.389Z,33.90
2022-08-11T14:36:39.014Z,33.70
2022-08-11T14:39:19.698Z,33.80
2022-08-11T14:42:19.488Z,33.80
2022-08-11T14:45:57.406Z,33.90
2022-08-11T14:48:46.094Z,34.00
2022-08-11T14:51:19.468Z,34.10
2022-08-11T14:54:17.822Z,34.00
2022-08-11T14:57:10.316Z,33.80
2022-08-11T14:59:44.840Z,33.70
2022-08-11T15:02:38.099Z,33.70
2022-08-11T15:05:36.598Z,33.80
2022-08-11T15:08:48.749Z,33.70
2022-08-11T15:11:50.724Z,33.70
2022-08-11T15:15:05.104Z,33.50
2022-08-11T15:18:04.345Z,33.40
2022-08-11T15:20:56.548Z,33.30
2022-08-11T15:24:06.788Z,33.20
2022-08-11T15:27:14.862Z,33.20
2022-08-11T15:30:32.427Z,33.40
2022-08-11T15:33:47.191Z,33.30
2022-08-11T15:36:59.537Z,33.20
2022-08-11T15:40:32.238Z,33.10
2022-08-11T15:44:04.466Z,33.10
2022-08-11T15:47:01.561Z,33.00
2022-08-11T15:50:11.361Z,32.70
2022-08-11T15:52:41.043Z,32.60
2022-08-11T15:55:34.633Z,32.40
2022-08-11T15:58:28.755Z,32.30
2022-08-11T16:01:41.837Z,32.40
2022-08-11T16:04:37.021Z,32.20
2022-08-11T16:07:12.981Z,32.10
2022-08-11T16:09:54.129Z,32.10
2022-08-11T16:12:40.648Z,32.00
2022-08-11T16:15:35.117Z,32.00
2022-08-11T16:18:43.718Z,31.90
2022-08-11T16:21:35.278Z,31.70
2022-08-11T16:27:03.921Z,31.50
2022-08-11T16:27:14.191Z,31.50
2022-08-11T16:29:50.701Z,31.40
2022-08-11T16:32:25.744Z,31.30
2022-08-11T16:35:28.132Z,31.20
2022-08-11T16:38:35.766Z,31.00
2022-08-11T16:41:15.925Z,30.90
2022-08-11T16:44:32.850Z,30.70
2022-08-11T16:48:33.200Z,30.70
2022-08-11T16:50:22.458Z,30.60
2022-08-11T16:52:54.732Z,30.70
2022-08-11T16:55:51.585Z,30.60
2022-08-11T16:58:43.427Z,30.50
2022-08-11T17:01:36.956Z,30.50
2022-08-11T17:04:37.858Z,30.30
2022-08-11T17:07:49.325Z,30.20
2022-08-11T17:11:07.793Z,30.10
2022-08-11T17:14:06.263Z,29.90
2022-08-11T17:16:49.187Z,29.80
2022-08-11T17:20:40.659Z,29.70
2022-08-11T17:22:40.735Z,29.50
2022-08-11T17:25:59.127Z,29.50
2022-08-11T17:28:26.895Z,29.30
2022-08-11T17:31:22.669Z,29.30
2022-08-11T17:34:33.764Z,29.20
2022-08-11T17:37:27.005Z,29.10
2022-08-11T17:40:03.057Z,29.00
2022-08-11T17:42:58.402Z,28.90
2022-08-11T17:46:05.450Z,28.80
2022-08-11T17:48:51.189Z,28.70
2022-08-11T17:51:44.405Z,28.60
2022-08-11T17:54:56.282Z,28.50
2022-08-11T17:58:07.601Z,28.50
2022-08-11T18:01:02.061Z,28.40
2022-08-11T18:03:56.463Z,28.30
2022-08-11T18:06:34.786Z,28.20
2022-08-11T18:09:34.205Z,28.10
2022-08-11T18:12:44.406Z,28.10
2022-08-11T18:15:58.890Z,28.00
2022-08-11T18:19:10.841Z,27.80
2022-08-11T18:22:31.824Z,27.70
2022-08-11T18:25:57.077Z,27.50
2022-08-11T18:29:14.320Z,27.40
2022-08-11T18:32:46.133Z,27.20
2022-08-11T18:35:57.469Z,27.10
2022-08-11T18:39:10.487Z,26.90
2022-08-11T18:42:29.729Z,26.80
2022-08-11T18:45:46.109Z,26.70
2022-08-11T18:49:00.763Z,26.50
2022-08-11T18:52:13.556Z,26.40
2022-08-11T18:55:29.514Z,26.30
2022-08-11T18:58:48.322Z,26.10
2022-08-11T19:01:59.785Z,26.00
2022-08-11T19:05:11.037Z,25.80
2022-08-11T19:08:22.636Z,25.70
2022-08-11T19:11:34.451Z,25.60
2022-08-11T19:14:55.605Z,25.50
2022-08-11T19:18:07.402Z,25.40
2022-08-11T19:21:18.756Z,25.20
2022-08-11T19:24:29.598Z,25.10
2022-08-11T19:27:41.972Z,25.10
2022-08-11T19:30:53.666Z,24.90
2022-08-11T19:34:10.654Z,24.80
2022-08-11T19:37:25.415Z,24.70
2022-08-11T19:40:36.545Z,24.60
2022-08-11T19:43:49.939Z,24.50
2022-08-11T19:47:06.805Z,24.40
2022-08-11T19:50:24.156Z,24.40
2022-08-11T19:53:36.336Z,24.30
2022-08-11T19:56:47.825Z,24.20
2022-08-11T20:00:03.416Z,24.20
2022-08-11T20:03:13.740Z,24.00
2022-08-11T20:06:27.596Z,23.90
2022-08-11T20:10:05.199Z,23.80
2022-08-11T20:13:10.271Z,23.70
2022-08-11T20:16:22.228Z,23.60
2022-08-11T20:19:55.586Z,23.50
2022-08-11T20:23:06.729Z,23.40
2022-08-11T20:26:34.832Z,23.20
2022-08-11T20:29:48.659Z,23.20
2022-08-11T20:33:01.143Z,23.10
2022-08-11T20:36:12.474Z,22.90
2022-08-11T20:39:23.848Z,22.80
2022-08-11T20:42:36.724Z,22.80
2022-08-11T20:45:52.101Z,22.60
2022-08-11T20:49:08.236Z,22.50
2022-08-11T20:52:18.878Z,22.50
2022-08-11T20:55:51.205Z,22.40
2022-08-11T20:59:17.620Z,22.30
2022-08-11T21:02:34.356Z,22.30
2022-08-11T21:06:10.383Z,22.20
2022-08-11T21:09:20.586Z,22.20
2022-08-11T21:12:35.147Z,22.10
2022-08-11T21:16:02.896Z,22.00
2022-08-11T21:19:54.494Z,22.00
2022-08-11T21:23:05.873Z,21.90
2022-08-11T21:26:25.733Z,21.90
2022-08-11T21:29:37.900Z,21.90
2022-08-11T21:32:50.136Z,21.80
2022-08-11T21:36:00.837Z,21.80
2022-08-11T21:39:11.519Z,21.80
2022-08-11T21:42:23.774Z,21.80
2022-08-11T21:45:36.711Z,21.80
2022-08-11T21:48:47.982Z,21.70
2022-08-11T21:51:58.200Z,21.70
2022-08-11T21:55:09.345Z,21.80
2022-08-11T21:58:21.007Z,21.80
2022-08-11T22:01:34.455Z,21.70
2022-08-11T22:04:45.982Z,21.70
2022-08-11T22:07:57.973Z,21.70
2022-08-11T22:11:08.935Z,21.60
2022-08-11T22:14:23.215Z,21.50
2022-08-11T22:17:33.520Z,21.50
2022-08-11T22:20:46.454Z,21.50
2022-08-11T22:23:59.186Z,21.50
2022-08-11T22:27:09.445Z,21.50
2022-08-11T22:30:19.859Z,21.40
2022-08-11T22:33:31.133Z,21.30
2022-08-11T22:36:42.050Z,21.20
2022-08-11T22:39:59.602Z,21.10
2022-08-11T22:43:12.678Z,21.00
2022-08-11T22:46:23.438Z,21.00
2022-08-11T22:49:56.117Z,20.90
2022-08-11T22:53:09.880Z,20.90
2022-08-11T22:56:19.873Z,20.80
2022-08-11T22:59:44.648Z,20.70
2022-08-11T23:02:56.201Z,20.60
2022-08-11T23:06:06.756Z,20.60
2022-08-11T23:09:18.623Z,20.60
2022-08-11T23:12:29.544Z,20.60
2022-08-11T23:15:40.828Z,20.60
2022-08-11T23:18:53.197Z,20.50
2022-08-11T23:22:05.685Z,20.50
2022-08-11T23:25:17.748Z,20.40
2022-08-11T23:28:31.988Z,20.40
2022-08-11T23:31:51.180Z,20.30
2022-08-11T23:35:39.884Z,20.20
2022-08-11T23:38:35.766Z,20.20
2022-08-11T23:41:46.630Z,20.10
2022-08-11T23:44:56.701Z,20.00
2022-08-11T23:48:09.610Z,20.00
2022-08-11T23:51:21.103Z,19.90
2022-08-11T23:54:37.188Z,19.80
2022-08-11T23:57:48.992Z,19.80
